createdAt,value
2022-10-26T00:00:12.973Z,12.95
2022-10-26T00:01:13.410Z,12.95
2022-10-26T00:02:13.233Z,12.92
2022-10-26T00:03:13.028Z,12.93
2022-10-26T00:04:15.351Z,12.94
2022-10-26T00:05:13.135Z,12.94
2022-10-26T00:06:13.280Z,12.98
2022-10-26T00:07:16.034Z,12.98
2022-10-26T00:08:13.138Z,12.98
2022-10-26T00:09:13.353Z,12.98
2022-10-26T00:10:13.022Z,12.97
2022-10-26T00:11:13.361Z,12.98
2022-10-26T00:12:15.367Z,13.01
2022-10-26T00:13:12.927Z,13.02
2022-10-26T00:14:12.915Z,13.1
2022-10-26T00:15:12.920Z,13.14
2022-10-26T00:16:13.349Z,13.15
2022-10-26T00:17:13.017Z,13.14
2022-10-26T00:18:15.951Z,13.13
2022-10-26T00:19:12.984Z,13.07
2022-10-26T00:20:13.056Z,13.06
2022-10-26T00:21:13.271Z,13.08
2022-10-26T00:22:13.088Z,13.09
2022-10-26T00:23:13.019Z,13.08
2022-10-26T00:24:13.334Z,13.07
2022-10-26T00:25:13.023Z,13.03
2022-10-26T00:26:13.285Z,13.04
2022-10-26T00:27:13.124Z,13.02
2022-10-26T00:28:13.056Z,12.98
2022-10-26T00:29:16.046Z,12.95
2022-10-26T00:30:13.124Z,12.98
2022-10-26T00:31:13.315Z,12.99
2022-10-26T00:32:13.007Z,12.96
2022-10-26T00:33:12.906Z,13
2022-10-26T00:34:12.916Z,13.03
2022-10-26T00:35:24.183Z,13.08
2022-10-26T00:36:13.342Z,13.11
2022-10-26T00:37:12.919Z,13.08
2022-10-26T00:38:12.910Z,13.03
2022-10-26T00:39:13.348Z,13.1
2022-10-26T00:40:15.915Z,13.14
2022-10-26T00:41:13.354Z,13.16
2022-10-26T00:42:13.019Z,13.15
2022-10-26T00:43:12.912Z,13.12
2022-10-26T00:44:12.927Z,13.08
2022-10-26T00:45:12.908Z,13.09
2022-10-26T00:46:13.282Z,13.05
2022-10-26T00:47:12.906Z,13.07
2022-10-26T00:48:13.042Z,13.08
2022-10-26T00:49:13.090Z,13.11
2022-10-26T00:50:13.036Z,13.13
2022-10-26T00:51:19.002Z,13.12
2022-10-26T00:52:12.997Z,13.1
2022-10-26T00:53:13.022Z,13.08
2022-10-26T00:54:13.276Z,13.09
2022-10-26T00:55:12.994Z,13.11
2022-10-26T00:56:13.392Z,13.12
2022-10-26T00:57:13.065Z,13.13
2022-10-26T00:58:12.990Z,13.16
2022-10-26T00:59:13.008Z,13.18
2022-10-26T01:00:13.071Z,13.21
2022-10-26T01:01:13.312Z,13.26
2022-10-26T01:02:16.084Z,13.24
2022-10-26T01:03:13.062Z,13.23
2022-10-26T01:04:12.929Z,13.23
2022-10-26T01:05:13.018Z,13.26
2022-10-26T01:06:13.321Z,13.22
2022-10-26T01:07:13.068Z,13.22
2022-10-26T01:08:12.904Z,13.23
2022-10-26T01:09:13.568Z,13.23
2022-10-26T01:10:13.133Z,13.22
2022-10-26T01:11:13.320Z,13.19
2022-10-26T01:12:13.009Z,13.15
2022-10-26T01:13:15.918Z,13.18
2022-10-26T01:14:13.021Z,13.16
2022-10-26T01:15:12.991Z,13.16
2022-10-26T01:16:13.345Z,13.14
2022-10-26T01:17:13.019Z,13.13
2022-10-26T01:18:13.035Z,13.11
2022-10-26T01:19:13.030Z,13.14
2022-10-26T01:20:13.348Z,13.16
2022-10-26T01:21:13.125Z,13.21
2022-10-26T01:22:13.136Z,13.26
2022-10-26T01:23:13.089Z,13.27
2022-10-26T01:24:18.954Z,13.29
2022-10-26T01:25:13.435Z,13.27
2022-10-26T01:26:13.125Z,13.27
2022-10-26T01:27:12.981Z,13.3
2022-10-26T01:28:12.934Z,13.27
2022-10-26T01:29:12.979Z,13.26
2022-10-26T01:30:13.278Z,13.25
2022-10-26T01:31:12.935Z,13.23
2022-10-26T01:32:13.040Z,13.18
2022-10-26T01:33:13.127Z,13.17
2022-10-26T01:34:13.129Z,13.16
2022-10-26T01:35:18.995Z,13.13
2022-10-26T01:36:12.991Z,13.2
2022-10-26T01:37:12.904Z,13.23
2022-10-26T01:38:12.994Z,13.27
2022-10-26T01:39:13.356Z,13.31
2022-10-26T01:40:13.274Z,13.32
2022-10-26T01:41:12.930Z,13.34
2022-10-26T01:42:13.023Z,13.37
2022-10-26T01:43:12.908Z,13.39
2022-10-26T01:44:13.029Z,13.34
2022-10-26T01:45:13.346Z,13.36
2022-10-26T01:46:16.049Z,13.34
2022-10-26T01:47:13.128Z,13.32
2022-10-26T01:48:13.060Z,13.23
2022-10-26T01:49:13.075Z,13.23
2022-10-26T01:50:13.347Z,13.23
2022-10-26T01:51:13.124Z,13.24
2022-10-26T01:52:13.026Z,13.22
2022-10-26T01:53:13.024Z,13.23
2022-10-26T01:54:13.355Z,13.25
2022-10-26T01:55:13.390Z,13.28
2022-10-26T01:56:12.996Z,13.32
2022-10-26T01:57:15.903Z,13.34
2022-10-26T01:58:13.090Z,13.38
2022-10-26T01:59:12.937Z,13.36
2022-10-26T02:00:13.594Z,13.33
2022-10-26T02:01:13.053Z,13.29
2022-10-26T02:02:12.903Z,13.28
2022-10-26T02:03:12.956Z,13.29
2022-10-26T02:04:13.107Z,13.33
2022-10-26T02:05:13.437Z,13.38
2022-10-26T02:06:13.096Z,13.38
2022-10-26T02:07:13.019Z,13.37
2022-10-26T02:08:16.016Z,13.31
2022-10-26T02:09:13.281Z,13.31
2022-10-26T02:10:13.274Z,13.31
2022-10-26T02:11:12.971Z,13.33
2022-10-26T02:12:13.027Z,13.36
2022-10-26T02:13:13.125Z,13.36
2022-10-26T02:14:12.919Z,13.3
2022-10-26T02:15:13.345Z,13.28
2022-10-26T02:16:12.995Z,13.25
2022-10-26T02:17:12.916Z,13.24
2022-10-26T02:18:13.065Z,13.2
2022-10-26T02:19:15.893Z,13.19
2022-10-26T02:20:13.270Z,13.2
2022-10-26T02:21:12.996Z,13.23
2022-10-26T02:22:12.907Z,13.26
2022-10-26T02:23:12.914Z,13.26
2022-10-26T02:24:13.407Z,13.24
2022-10-26T02:25:13.312Z,13.23
2022-10-26T02:26:12.921Z,13.22
2022-10-26T02:27:12.939Z,13.21
2022-10-26T02:28:12.904Z,13.18
2022-10-26T02:29:13.002Z,13.15
2022-10-26T02:30:19.901Z,13.13
2022-10-26T02:31:13.106Z,13.12
2022-10-26T02:32:13.039Z,13.11
2022-10-26T02:33:13.017Z,13.1
2022-10-26T02:34:13.039Z,13.11
2022-10-26T02:35:13.276Z,13.08
2022-10-26T02:36:13.013Z,13.08
2022-10-26T02:37:12.903Z,13.06
2022-10-26T02:38:12.917Z,13.04
2022-10-26T02:39:13.352Z,13.02
2022-10-26T02:40:13.385Z,13.05
2022-10-26T02:41:16.164Z,13.06
2022-10-26T02:42:12.985Z,13.03
2022-10-26T02:43:13.011Z,13.02
2022-10-26T02:44:13.051Z,13.03
2022-10-26T02:45:13.293Z,13.02
2022-10-26T02:46:13.011Z,13.05
2022-10-26T02:47:12.948Z,13.05
2022-10-26T02:48:12.950Z,13.12
2022-10-26T02:49:12.929Z,13.04
2022-10-26T02:50:13.417Z,13.1
2022-10-26T02:51:13.113Z,13.11
2022-10-26T02:52:15.944Z,13.09
2022-10-26T02:53:13.023Z,13.09
2022-10-26T02:54:13.359Z,13.09
2022-10-26T02:55:13.286Z,13.13
2022-10-26T02:56:13.029Z,13.2
2022-10-26T02:57:12.921Z,13.18
2022-10-26T02:58:12.999Z,13.13
2022-10-26T02:59:12.912Z,13.12
2022-10-26T03:00:13.396Z,13.07
2022-10-26T03:01:12.950Z,12.97
2022-10-26T03:02:12.921Z,12.95
2022-10-26T03:03:15.980Z,12.88
2022-10-26T03:04:13.113Z,12.87
2022-10-26T03:05:13.086Z,12.86
2022-10-26T03:06:13.107Z,12.82
2022-10-26T03:07:13.002Z,12.78
2022-10-26T03:08:13.057Z,12.76
2022-10-26T03:09:13.279Z,12.77
2022-10-26T03:10:13.454Z,12.75
2022-10-26T03:11:13.128Z,12.74
2022-10-26T03:12:13.105Z,12.73
2022-10-26T03:13:13.121Z,12.75
2022-10-26T03:14:15.938Z,12.74
2022-10-26T03:15:13.298Z,12.77
2022-10-26T03:16:13.131Z,12.78
2022-10-26T03:17:13.125Z,12.8
2022-10-26T03:18:13.001Z,12.82
2022-10-26T03:19:12.924Z,12.85
2022-10-26T03:20:13.281Z,12.84
2022-10-26T03:21:12.938Z,12.83
2022-10-26T03:22:12.981Z,12.85
2022-10-26T03:23:12.938Z,12.88
2022-10-26T03:24:13.402Z,12.9
2022-10-26T03:25:18.976Z,12.91
2022-10-26T03:26:13.054Z,12.94
2022-10-26T03:27:12.927Z,12.94
2022-10-26T03:28:12.903Z,12.92
2022-10-26T03:29:13.022Z,12.92
2022-10-26T03:30:13.314Z,12.98
2022-10-26T03:31:12.900Z,12.98
2022-10-26T03:32:12.932Z,13.04
2022-10-26T03:33:12.907Z,13.05
2022-10-26T03:34:13.380Z,13.03
2022-10-26T03:35:13.120Z,13.02
2022-10-26T03:36:16.016Z,13.03
2022-10-26T03:37:13.137Z,13.04
2022-10-26T03:38:15.839Z,13.07
2022-10-26T03:39:13.447Z,13.14
2022-10-26T03:40:13.095Z,13.18
2022-10-26T03:41:12.894Z,13.29
2022-10-26T03:42:13.003Z,13.32
2022-10-26T03:43:12.926Z,13.38
2022-10-26T03:44:13.346Z,13.37
2022-10-26T03:45:13.129Z,13.36
2022-10-26T03:46:13.035Z,13.28
2022-10-26T03:47:15.954Z,13.21
2022-10-26T03:48:12.988Z,13.13
2022-10-26T03:49:13.344Z,13.16
2022-10-26T03:50:12.996Z,13.18
2022-10-26T03:51:13.166Z,13.17
2022-10-26T03:52:13.134Z,13.21
2022-10-26T03:53:12.937Z,13.19
2022-10-26T03:54:13.419Z,13.26
2022-10-26T03:55:12.912Z,13.34
2022-10-26T03:56:13.001Z,13.34
2022-10-26T03:57:13.020Z,13.32
2022-10-26T03:58:15.992Z,13.27
2022-10-26T03:59:13.158Z,13.36
2022-10-26T04:00:13.122Z,13.39
2022-10-26T04:01:13.146Z,13.34
2022-10-26T04:02:13.125Z,13.31
2022-10-26T04:03:13.128Z,13.35
2022-10-26T04:04:13.326Z,13.37
2022-10-26T04:05:12.900Z,13.33
2022-10-26T04:06:12.925Z,13.37
2022-10-26T04:07:12.927Z,13.38
2022-10-26T04:08:13.001Z,13.36
2022-10-26T04:09:18.978Z,13.35
2022-10-26T04:10:13.111Z,13.33
2022-10-26T04:11:12.996Z,13.28
2022-10-26T04:12:12.925Z,13.24
2022-10-26T04:13:13.044Z,13.21
2022-10-26T04:14:13.281Z,13.18
2022-10-26T04:15:13.022Z,13.18
2022-10-26T04:16:13.008Z,13.21
2022-10-26T04:17:13.080Z,13.19
2022-10-26T04:18:12.941Z,13.2
2022-10-26T04:19:13.396Z,13.19
2022-10-26T04:20:15.957Z,13.24
2022-10-26T04:21:13.034Z,13.24
2022-10-26T04:22:12.942Z,13.2
2022-10-26T04:23:13.052Z,13.15
2022-10-26T04:24:13.408Z,13.11
2022-10-26T04:25:13.021Z,13.05
2022-10-26T04:26:12.940Z,13.02
2022-10-26T04:27:12.923Z,12.98
2022-10-26T04:28:13.045Z,12.98
2022-10-26T04:29:13.390Z,12.95
2022-10-26T04:30:13.125Z,12.95
2022-10-26T04:31:15.919Z,12.94
2022-10-26T04:32:12.999Z,12.95
2022-10-26T04:33:12.901Z,12.94
2022-10-26T04:34:13.349Z,12.9
2022-10-26T04:35:15.321Z,12.89
2022-10-26T04:36:13.063Z,12.89
2022-10-26T04:37:13.041Z,12.94
2022-10-26T04:38:13.030Z,12.95
2022-10-26T04:39:13.309Z,12.94
2022-10-26T04:40:13.097Z,12.97
2022-10-26T04:41:12.897Z,13.02
2022-10-26T04:42:15.915Z,13.06
2022-10-26T04:43:12.985Z,13.06
2022-10-26T04:44:13.355Z,13.07
2022-10-26T04:45:13.080Z,13.08
2022-10-26T04:46:15.794Z,13.06
2022-10-26T04:47:13.098Z,13.05
2022-10-26T04:48:12.973Z,13.07
2022-10-26T04:49:13.343Z,13.09
2022-10-26T04:50:13.091Z,13.13
2022-10-26T04:51:12.909Z,13.15
2022-10-26T04:52:12.926Z,13.14
2022-10-26T04:53:15.949Z,13.18
2022-10-26T04:54:13.306Z,13.2
2022-10-26T04:55:13.087Z,13.27
2022-10-26T04:56:12.985Z,13.32
2022-10-26T04:57:13.041Z,13.31
2022-10-26T04:58:13.069Z,13.28
2022-10-26T04:59:13.301Z,13.28
2022-10-26T05:00:13.007Z,13.25
2022-10-26T05:01:13.170Z,13.24
2022-10-26T05:02:13.107Z,13.26
2022-10-26T05:03:13.059Z,13.35
2022-10-26T05:04:18.976Z,13.31
2022-10-26T05:05:15.085Z,13.28
2022-10-26T05:06:13.055Z,13.25
2022-10-26T05:07:13.060Z,13.22
2022-10-26T05:08:13.059Z,13.18
2022-10-26T05:09:13.312Z,13.11
2022-10-26T05:10:12.912Z,13.03
2022-10-26T05:11:12.898Z,13
2022-10-26T05:12:12.917Z,12.93
2022-10-26T05:13:12.913Z,12.9
2022-10-26T05:14:13.347Z,12.83
2022-10-26T05:15:16.145Z,12.8
2022-10-26T05:16:13.032Z,12.76
2022-10-26T05:17:13.028Z,12.79
2022-10-26T05:18:13.015Z,12.74
2022-10-26T05:19:13.397Z,12.73
2022-10-26T05:20:13.123Z,12.72
2022-10-26T05:21:13.065Z,12.74
2022-10-26T05:22:13.070Z,12.75
2022-10-26T05:23:13.107Z,12.76
2022-10-26T05:24:14.451Z,12.79
2022-10-26T05:25:12.996Z,12.83
2022-10-26T05:26:16.006Z,12.88
2022-10-26T05:27:13.107Z,12.93
2022-10-26T05:28:13.020Z,13
2022-10-26T05:29:13.275Z,13.04
2022-10-26T05:30:12.976Z,13.1
2022-10-26T05:31:12.925Z,13.13
2022-10-26T05:32:13.030Z,13.17
2022-10-26T05:33:13.017Z,13.15
2022-10-26T05:34:13.350Z,13.15
2022-10-26T05:35:13.111Z,13.13
2022-10-26T05:36:13.009Z,13.12
2022-10-26T05:37:15.881Z,13.13
2022-10-26T05:38:13.043Z,13.19
2022-10-26T05:39:13.514Z,13.24
2022-10-26T05:40:13.288Z,13.28
2022-10-26T05:41:13.027Z,13.32
2022-10-26T05:42:12.990Z,13.35
2022-10-26T05:43:12.977Z,13.29
2022-10-26T05:44:13.361Z,13.28
2022-10-26T05:45:13.109Z,13.25
2022-10-26T05:46:13.131Z,13.27
2022-10-26T05:47:13.069Z,13.32
2022-10-26T05:48:15.916Z,13.34
2022-10-26T05:49:12.985Z,13.37
2022-10-26T05:50:12.924Z,13.4
2022-10-26T05:51:13.021Z,13.45
2022-10-26T05:52:13.135Z,13.47
2022-10-26T05:53:13.111Z,13.52
2022-10-26T05:54:14.010Z,13.5
2022-10-26T05:55:13.352Z,13.48
2022-10-26T05:56:13.017Z,13.47
2022-10-26T05:57:12.925Z,13.5
2022-10-26T05:58:13.062Z,13.54
2022-10-26T05:59:19.000Z,13.57
2022-10-26T06:00:13.080Z,13.59
2022-10-26T06:01:13.159Z,13.56
2022-10-26T06:02:13.119Z,13.51
2022-10-26T06:03:12.916Z,13.53
2022-10-26T06:04:13.276Z,13.55
2022-10-26T06:05:13.017Z,13.57
2022-10-26T06:06:13.013Z,13.56
2022-10-26T06:07:12.901Z,13.6
2022-10-26T06:08:13.082Z,13.63
2022-10-26T06:09:13.394Z,13.64
2022-10-26T06:10:18.965Z,13.68
2022-10-26T06:11:12.980Z,13.68
2022-10-26T06:12:14.494Z,13.71
2022-10-26T06:13:12.987Z,13.72
2022-10-26T06:14:13.364Z,13.71
2022-10-26T06:15:13.014Z,13.69
2022-10-26T06:16:13.052Z,13.73
2022-10-26T06:17:12.933Z,13.73
2022-10-26T06:18:12.926Z,13.68
2022-10-26T06:19:13.352Z,13.66
2022-10-26T06:21:21.412Z,13.65
2022-10-26T06:22:21.314Z,13.67
2022-10-26T06:23:21.287Z,13.67
2022-10-26T06:24:21.791Z,13.67
2022-10-26T06:25:21.362Z,13.69
2022-10-26T06:26:24.496Z,13.72
2022-10-26T06:27:21.400Z,13.75
2022-10-26T06:28:21.366Z,13.8
2022-10-26T06:29:21.751Z,13.85
2022-10-26T06:30:21.372Z,13.85
2022-10-26T06:31:21.289Z,13.84
2022-10-26T06:32:21.427Z,13.81
2022-10-26T06:33:29.896Z,13.81
2022-10-26T06:34:21.773Z,13.86
2022-10-26T06:35:21.393Z,13.85
2022-10-26T06:36:21.313Z,13.83
2022-10-26T06:37:24.308Z,13.89
2022-10-26T06:38:21.470Z,13.89
2022-10-26T06:39:21.725Z,13.88
2022-10-26T06:40:21.396Z,13.89
2022-10-26T06:41:21.273Z,13.94
2022-10-26T06:42:21.404Z,13.99
2022-10-26T06:43:21.389Z,14
2022-10-26T06:44:21.738Z,14.06
2022-10-26T06:45:21.376Z,14.08
2022-10-26T06:46:21.278Z,14.12
2022-10-26T06:47:23.600Z,14.15
2022-10-26T06:48:24.469Z,14.14
2022-10-26T06:49:21.653Z,14.18
2022-10-26T06:50:21.394Z,14.18
2022-10-26T06:51:21.319Z,14.18
2022-10-26T06:52:21.407Z,14.21
2022-10-26T06:53:21.485Z,14.25
2022-10-26T06:54:21.655Z,14.26
2022-10-26T06:55:21.418Z,14.28
2022-10-26T06:56:21.514Z,14.31
2022-10-26T06:57:21.528Z,14.34
2022-10-26T06:58:21.418Z,14.39
2022-10-26T06:59:27.342Z,14.43
2022-10-26T07:00:21.434Z,14.42
2022-10-26T07:01:21.438Z,14.44
2022-10-26T07:02:21.489Z,14.43
2022-10-26T07:03:21.356Z,14.44
2022-10-26T07:04:21.929Z,14.49
2022-10-26T07:05:21.295Z,14.51
2022-10-26T07:06:21.299Z,14.54
2022-10-26T07:07:21.298Z,14.54
2022-10-26T07:08:21.378Z,14.55
2022-10-26T07:09:21.648Z,14.56
2022-10-26T07:10:24.431Z,14.59
2022-10-26T07:11:21.456Z,14.6
2022-10-26T07:12:21.320Z,14.55
2022-10-26T07:13:21.289Z,14.55
2022-10-26T07:14:21.735Z,14.55
2022-10-26T07:15:21.362Z,14.53
2022-10-26T07:16:21.415Z,14.58
2022-10-26T07:17:21.389Z,14.63
2022-10-26T07:18:21.389Z,14.62
2022-10-26T07:19:21.654Z,14.61
2022-10-26T07:20:21.289Z,14.66
2022-10-26T07:21:24.386Z,14.66
2022-10-26T07:22:21.465Z,14.71
2022-10-26T07:23:21.487Z,14.81
2022-10-26T07:24:21.659Z,14.82
2022-10-26T07:25:21.503Z,14.8
2022-10-26T07:26:21.299Z,14.85
2022-10-26T07:27:21.287Z,14.85
2022-10-26T07:28:21.271Z,14.72
2022-10-26T07:29:21.666Z,14.69
2022-10-26T07:30:21.469Z,14.71
2022-10-26T07:31:21.528Z,14.75
2022-10-26T07:32:24.388Z,14.58
2022-10-26T07:33:21.386Z,14.74
2022-10-26T07:34:21.732Z,14.83
2022-10-26T07:35:21.481Z,14.87
2022-10-26T07:36:21.381Z,14.87
2022-10-26T07:37:21.387Z,14.85
2022-10-26T07:38:21.437Z,14.83
2022-10-26T07:39:21.742Z,14.84
2022-10-26T07:41:29.916Z,14.98
2022-10-26T07:42:30.053Z,14.98
2022-10-26T07:43:30.093Z,14.99
2022-10-26T07:44:30.232Z,14.84
2022-10-26T07:45:30.048Z,14.69
2022-10-26T07:46:32.950Z,14.64
2022-10-26T07:47:29.970Z,14.62
2022-10-26T07:48:29.873Z,14.59
2022-10-26T07:49:30.293Z,14.64
2022-10-26T07:50:30.067Z,14.68
2022-10-26T07:51:29.884Z,14.72
2022-10-26T07:52:29.966Z,14.77
2022-10-26T07:53:29.868Z,14.83
2022-10-26T07:54:30.277Z,14.93
2022-10-26T07:55:29.961Z,14.99
2022-10-26T07:56:29.855Z,15.06
2022-10-26T07:57:32.978Z,15.08
2022-10-26T07:58:29.961Z,15.16
2022-10-26T07:59:30.294Z,15.21
2022-10-26T08:00:30.163Z,15.25
2022-10-26T08:01:30.230Z,15.28
2022-10-26T08:02:30.061Z,15.29
2022-10-26T08:03:29.844Z,15.4
2022-10-26T08:04:30.302Z,15.39
2022-10-26T08:06:40.347Z,15.46
2022-10-26T08:07:36.801Z,15.46
2022-10-26T08:08:36.757Z,15.48
2022-10-26T08:09:37.020Z,15.49
2022-10-26T08:10:36.648Z,15.52
2022-10-26T08:11:36.596Z,15.52
2022-10-26T08:12:36.561Z,15.52
2022-10-26T08:13:36.735Z,15.57
2022-10-26T08:14:37.005Z,15.62
2022-10-26T08:15:36.789Z,15.7
2022-10-26T08:16:36.797Z,15.71
2022-10-26T08:17:39.580Z,15.73
2022-10-26T08:18:36.765Z,15.81
2022-10-26T08:19:37.007Z,15.87
2022-10-26T08:20:36.630Z,15.93
2022-10-26T08:21:40.210Z,15.94
2022-10-26T08:22:36.794Z,15.94
2022-10-26T08:23:36.714Z,15.99
2022-10-26T08:24:37.005Z,16
2022-10-26T08:25:36.790Z,16.03
2022-10-26T08:26:36.703Z,16.08
2022-10-26T08:27:36.701Z,16.17
2022-10-26T08:28:39.617Z,16.21
2022-10-26T08:29:37.047Z,16.3
2022-10-26T08:30:36.754Z,16.28
2022-10-26T08:31:36.626Z,16.28
2022-10-26T08:32:36.714Z,16.46
2022-10-26T08:33:36.787Z,16.67
2022-10-26T08:34:37.139Z,16.83
2022-10-26T08:35:36.586Z,16.93
2022-10-26T08:36:36.548Z,17.02
2022-10-26T08:37:36.581Z,17.19
2022-10-26T08:38:36.579Z,17.32
2022-10-26T08:39:42.721Z,17.49
2022-10-26T08:40:36.772Z,17.66
2022-10-26T08:41:36.573Z,17.71
2022-10-26T08:42:36.682Z,17.69
2022-10-26T08:43:36.768Z,17.67
2022-10-26T08:44:37.005Z,17.69
2022-10-26T08:45:37.214Z,17.74
2022-10-26T08:46:36.694Z,17.88
2022-10-26T08:47:36.644Z,18.13
2022-10-26T08:48:36.572Z,18.22
2022-10-26T08:49:36.947Z,18.18
2022-10-26T08:50:42.045Z,18.19
2022-10-26T08:51:36.650Z,18.18
2022-10-26T08:52:36.574Z,18.23
2022-10-26T08:53:36.560Z,18.28
2022-10-26T08:54:37.011Z,18.37
2022-10-26T08:55:36.696Z,18.38
2022-10-26T08:56:36.557Z,18.35
2022-10-26T08:57:36.573Z,18.38
2022-10-26T08:58:36.579Z,18.36
2022-10-26T08:59:37.008Z,18.44
2022-10-26T09:00:36.570Z,18.47
2022-10-26T09:01:39.779Z,18.44
2022-10-26T09:02:36.663Z,18.53
2022-10-26T09:03:36.577Z,18.55
2022-10-26T09:04:37.000Z,18.69
2022-10-26T09:05:37.032Z,18.9
2022-10-26T09:06:36.569Z,18.95
2022-10-26T09:07:36.583Z,18.96
2022-10-26T09:08:36.682Z,18.92
2022-10-26T09:09:36.977Z,18.8
2022-10-26T09:10:36.651Z,18.8
2022-10-26T09:11:36.723Z,18.85
2022-10-26T09:12:39.751Z,18.74
2022-10-26T09:13:36.654Z,18.67
2022-10-26T09:14:37.014Z,18.63
2022-10-26T09:15:36.667Z,18.51
2022-10-26T09:16:36.566Z,18.53
2022-10-26T09:17:36.711Z,18.53
2022-10-26T09:18:36.605Z,18.59
2022-10-26T09:19:37.003Z,18.64
2022-10-26T09:20:36.572Z,18.68
2022-10-26T09:21:36.578Z,18.54
2022-10-26T09:22:36.560Z,18.43
2022-10-26T09:23:36.576Z,18.42
2022-10-26T09:24:37.006Z,18.49
2022-10-26T09:25:36.757Z,18.57
2022-10-26T09:26:36.588Z,18.59
2022-10-26T09:27:36.576Z,18.68
2022-10-26T09:28:39.690Z,18.59
2022-10-26T09:29:37.021Z,18.58
2022-10-26T09:30:36.751Z,18.53
2022-10-26T09:31:39.577Z,18.52
2022-10-26T09:32:36.766Z,18.61
2022-10-26T09:33:36.666Z,18.6
2022-10-26T09:34:36.926Z,18.65
2022-10-26T09:35:36.713Z,18.71
2022-10-26T09:36:36.668Z,18.91
2022-10-26T09:37:36.568Z,19.14
2022-10-26T09:38:36.578Z,19.37
2022-10-26T09:39:42.659Z,19.6
2022-10-26T09:40:36.623Z,19.6
2022-10-26T09:41:36.601Z,19.5
2022-10-26T09:42:36.578Z,19.46
2022-10-26T09:43:36.677Z,19.44
2022-10-26T09:44:37.005Z,19.36
2022-10-26T09:45:36.572Z,19.28
2022-10-26T09:46:36.568Z,19.12
2022-10-26T09:47:36.553Z,18.97
2022-10-26T09:48:36.688Z,18.81
2022-10-26T09:49:36.997Z,18.73
2022-10-26T09:50:39.720Z,18.58
2022-10-26T09:51:36.761Z,18.39
2022-10-26T09:52:36.571Z,18.17
2022-10-26T09:53:36.572Z,18.04
2022-10-26T09:54:37.027Z,17.94
2022-10-26T09:55:36.671Z,18.04
2022-10-26T09:56:36.646Z,18.2
2022-10-26T09:57:36.714Z,18.36
2022-10-26T09:58:36.688Z,18.52
2022-10-26T09:59:37.034Z,18.46
2022-10-26T10:00:36.648Z,18.45
2022-10-26T10:01:41.465Z,18.57
2022-10-26T10:02:36.828Z,18.64
2022-10-26T10:03:36.579Z,18.71
2022-10-26T10:04:36.934Z,18.79
2022-10-26T10:05:50.677Z,18.84
2022-10-26T10:06:36.660Z,18.94
2022-10-26T10:07:39.942Z,19.01
2022-10-26T10:08:36.576Z,19.09
2022-10-26T10:09:37.005Z,19.24
2022-10-26T10:10:36.722Z,19.38
2022-10-26T10:11:36.687Z,19.49
2022-10-26T10:12:39.656Z,19.55
2022-10-26T10:13:36.784Z,19.4
2022-10-26T10:14:39.005Z,19.12
2022-10-26T10:15:36.741Z,18.92
2022-10-26T10:16:36.631Z,18.85
2022-10-26T10:17:36.659Z,18.85
2022-10-26T10:18:36.669Z,18.87
2022-10-26T10:19:36.933Z,19.02
2022-10-26T10:20:36.581Z,19.18
2022-10-26T10:21:36.738Z,19.45
2022-10-26T10:22:36.782Z,19.68
2022-10-26T10:23:39.692Z,19.8
2022-10-26T10:24:36.942Z,19.9
2022-10-26T10:25:36.667Z,20
2022-10-26T10:26:36.554Z,20.11
2022-10-26T10:27:36.682Z,20.17
2022-10-26T10:28:36.581Z,20.12
2022-10-26T10:29:36.930Z,20.14
2022-10-26T10:30:36.548Z,20.16
2022-10-26T10:31:36.578Z,20.09
2022-10-26T10:32:40.614Z,20.08
2022-10-26T10:33:36.607Z,20.03
2022-10-26T10:34:42.623Z,20.07
2022-10-26T10:35:36.654Z,20.14
2022-10-26T10:36:36.721Z,20.21
2022-10-26T10:37:36.764Z,20.31
2022-10-26T10:38:36.746Z,20.77
2022-10-26T10:39:36.935Z,20.95
2022-10-26T10:40:36.569Z,21.27
2022-10-26T10:41:36.731Z,21.46
2022-10-26T10:42:36.698Z,21.63
2022-10-26T10:43:36.686Z,21.68
2022-10-26T10:44:36.985Z,21.65
2022-10-26T10:45:39.725Z,21.52
2022-10-26T10:46:36.774Z,21.27
2022-10-26T10:47:36.791Z,21.31
2022-10-26T10:48:39.342Z,21.51
2022-10-26T10:49:36.937Z,21.78
2022-10-26T10:50:36.686Z,21.88
2022-10-26T10:51:36.545Z,21.73
2022-10-26T10:52:36.572Z,21.61
2022-10-26T10:53:36.581Z,21.53
2022-10-26T10:54:37.006Z,21.39
2022-10-26T10:55:36.641Z,21.35
2022-10-26T10:56:39.616Z,21.45
2022-10-26T10:57:36.671Z,21.52
2022-10-26T10:58:36.572Z,21.53
2022-10-26T10:59:36.947Z,21.75
2022-10-26T11:00:36.672Z,21.96
2022-10-26T11:01:36.725Z,21.92
2022-10-26T11:02:37.534Z,21.7
2022-10-26T11:03:36.587Z,21.58
2022-10-26T11:04:37.037Z,21.39
2022-10-26T11:05:36.769Z,21.19
2022-10-26T11:06:36.778Z,21.11
2022-10-26T11:07:39.695Z,20.97
2022-10-26T11:08:36.685Z,20.85
2022-10-26T11:09:37.030Z,20.76
2022-10-26T11:10:36.795Z,20.64
2022-10-26T11:11:38.657Z,20.59
2022-10-26T11:12:36.872Z,20.7
2022-10-26T11:13:36.593Z,20.94
2022-10-26T11:14:37.007Z,21.05
2022-10-26T11:15:36.691Z,21.26
2022-10-26T11:16:36.584Z,21.44
2022-10-26T11:17:36.588Z,21.54
2022-10-26T11:18:39.613Z,21.51
2022-10-26T11:19:37.038Z,21.4
2022-10-26T11:20:36.581Z,21.37
2022-10-26T11:21:36.687Z,21.19
2022-10-26T11:22:36.583Z,20.9
2022-10-26T11:23:36.570Z,20.59
2022-10-26T11:24:36.977Z,20.41
2022-10-26T11:25:36.704Z,20.35
2022-10-26T11:26:36.670Z,20.42
2022-10-26T11:27:36.573Z,20.59
2022-10-26T11:28:36.596Z,20.81
2022-10-26T11:29:44.605Z,21.02
2022-10-26T11:30:36.752Z,21.17
2022-10-26T11:31:36.663Z,21.12
2022-10-26T11:32:36.594Z,21.01
2022-10-26T11:33:36.714Z,20.99
2022-10-26T11:34:36.931Z,21.04
2022-10-26T11:35:36.626Z,21.07
2022-10-26T11:36:36.648Z,21.05
2022-10-26T11:37:36.713Z,21.04
2022-10-26T11:38:46.215Z,21
2022-10-26T11:39:37.044Z,21.06
2022-10-26T11:40:39.598Z,21.14
2022-10-26T11:41:36.633Z,21.15
2022-10-26T11:42:36.619Z,21.18
2022-10-26T11:43:36.551Z,21.17
2022-10-26T11:44:37.047Z,21.13
2022-10-26T11:45:36.634Z,21.1
2022-10-26T11:46:36.576Z,21.17
2022-10-26T11:47:36.569Z,21.25
2022-10-26T11:48:36.562Z,21.27
2022-10-26T11:49:37.003Z,21.33
2022-10-26T11:50:36.712Z,21.39
2022-10-26T11:51:39.594Z,21.44
2022-10-26T11:52:36.664Z,21.51
2022-10-26T11:53:36.648Z,21.57
2022-10-26T11:54:37.027Z,21.5
2022-10-26T11:55:36.783Z,21.53
2022-10-26T11:56:36.765Z,21.5
2022-10-26T11:57:36.729Z,21.56
2022-10-26T11:58:36.611Z,21.6
2022-10-26T11:59:37.009Z,21.66
2022-10-26T12:00:36.788Z,21.68
2022-10-26T12:01:36.806Z,21.73
2022-10-26T12:02:39.788Z,21.73
2022-10-26T12:03:36.757Z,21.73
2022-10-26T12:04:37.074Z,21.76
2022-10-26T12:05:36.753Z,21.8
2022-10-26T12:06:36.664Z,21.84
2022-10-26T12:07:36.568Z,21.82
2022-10-26T12:08:36.578Z,21.74
2022-10-26T12:09:36.998Z,21.75
2022-10-26T12:10:36.779Z,21.73
2022-10-26T12:11:36.639Z,21.66
2022-10-26T12:12:37.461Z,21.6
2022-10-26T12:13:39.654Z,21.53
2022-10-26T12:14:36.957Z,21.41
2022-10-26T12:16:01.662Z,21.4
2022-10-26T12:16:36.570Z,21.39
2022-10-26T12:17:36.701Z,21.29
2022-10-26T12:18:54.430Z,21.2
2022-10-26T12:19:36.954Z,21.11
2022-10-26T12:20:36.710Z,21.13
2022-10-26T12:21:36.767Z,21.17
2022-10-26T12:22:36.681Z,21.24
2022-10-26T12:23:40.969Z,21.28
2022-10-26T12:24:42.654Z,21.25
2022-10-26T12:25:36.651Z,21.17
2022-10-26T12:26:36.577Z,21.08
2022-10-26T12:27:36.592Z,21.08
2022-10-26T12:28:36.559Z,21.03
2022-10-26T12:29:37.228Z,20.93
2022-10-26T12:30:36.581Z,20.89
2022-10-26T12:31:36.575Z,20.89
2022-10-26T12:32:39.133Z,20.88
2022-10-26T12:33:36.704Z,20.91
2022-10-26T12:34:37.003Z,20.96
2022-10-26T12:35:39.724Z,21.05
2022-10-26T12:36:36.650Z,21.12
2022-10-26T12:37:37.394Z,21.23
2022-10-26T12:38:36.764Z,21.28
2022-10-26T12:39:37.002Z,21.22
2022-10-26T12:40:36.746Z,21.14
2022-10-26T12:41:36.567Z,21.09
2022-10-26T12:42:36.689Z,21.12
2022-10-26T12:43:36.850Z,21.12
2022-10-26T12:44:37.048Z,21.15
2022-10-26T12:45:36.776Z,21.19
2022-10-26T12:46:39.714Z,21.27
2022-10-26T12:47:36.762Z,21.26
2022-10-26T12:48:39.265Z,21.22
2022-10-26T12:49:36.931Z,21.19
2022-10-26T12:50:36.775Z,21.14
2022-10-26T12:51:39.820Z,21.24
2022-10-26T12:52:36.549Z,21.38
2022-10-26T12:53:36.572Z,21.46
2022-10-26T12:54:37.008Z,21.57
2022-10-26T12:55:36.792Z,21.66
2022-10-26T12:56:36.733Z,21.67
2022-10-26T12:57:39.671Z,21.55
2022-10-26T12:58:36.723Z,21.52